Wattsburg, Pennsylvania
Current Conditions -  °F | °C
As of 10:51 AM on Friday 19 Dec 2014 (Local Time) from KERI Reporting Station
Overcast Overcast  
Wind Chill: 19°   Ceiling: 1800
Heat Index: 28°   Visibility: 10mi
Dew Point: 19°   Wind: 10mph
Humidity: 69%   Direction: 300°WNW
Pressure: 30.23"   Gusts: NA
Location:  42°N, 79.81°W
Report Text: KERI 191551Z 30009KT 10SM OVC018 M02/M07 A3023 RMK AO2 SLP246 T10221072
Loading
Personal Weather Stations






























Interactive Weather Map New forecast layout! Learn more

10-Day Weather Forecast

Advertisements
Track Severe Weather on mobile